createdAt,value
2023-06-18T04:02:10.499Z,9.60
2023-06-18T04:06:22.202Z,8.95
2023-06-18T04:10:33.785Z,9.50
2023-06-18T04:14:45.381Z,9.55
2023-06-18T04:18:57.201Z,9.23
2023-06-18T04:23:09.756Z,9.40
2023-06-18T04:27:21.950Z,9.98
2023-06-18T04:31:33.645Z,10.73
2023-06-18T04:35:46.418Z,9.68
2023-06-18T04:39:59.288Z,9.90
2023-06-18T04:44:14.072Z,11.27
2023-06-18T04:48:28.625Z,10.77
2023-06-18T04:52:40.316Z,13.68
2023-06-18T04:56:53.342Z,9.95
2023-06-18T05:01:05.070Z,13.85
2023-06-18T05:05:17.162Z,9.80
2023-06-18T05:09:30.697Z,11.90
2023-06-18T05:13:42.295Z,12.25
2023-06-18T05:17:53.868Z,13.43
2023-06-18T05:22:06.617Z,11.85
2023-06-18T05:26:19.046Z,13.27
2023-06-18T05:30:30.774Z,11.10
2023-06-18T05:34:43.212Z,10.52
2023-06-18T05:39:00.229Z,10.10
2023-06-18T05:43:14.267Z,10.52
2023-06-18T05:47:31.453Z,10.82
2023-06-18T05:51:46.314Z,10.73
2023-06-18T05:55:58.814Z,11.20
2023-06-18T06:00:12.563Z,11.70
2023-06-18T06:04:27.822Z,11.20
2023-06-18T06:08:39.450Z,11.43
2023-06-18T06:12:54.781Z,11.02
2023-06-18T06:17:08.343Z,10.32
2023-06-18T06:21:20.535Z,10.18
2023-06-18T06:25:32.679Z,10.65
2023-06-18T06:29:44.514Z,9.77
2023-06-18T06:33:57.227Z,10.63
2023-06-18T06:38:09.921Z,11.45
2023-06-18T06:42:21.986Z,10.93
2023-06-18T06:46:53.534Z,10.98
2023-06-18T06:51:10.881Z,11.27
2023-06-18T06:55:29.006Z,10.50
2023-06-18T06:59:40.751Z,11.63
2023-06-18T07:03:52.740Z,10.60
2023-06-18T07:08:06.530Z,10.27
2023-06-18T07:12:19.745Z,12.23
2023-06-18T07:16:33.662Z,10.65
2023-06-18T07:20:45.344Z,10.85
2023-06-18T07:24:57.928Z,10.15
2023-06-18T07:29:09.520Z,10.32
2023-06-18T07:33:21.921Z,9.88
2023-06-18T07:37:33.773Z,11.18
2023-06-18T07:41:48.511Z,10.25
2023-06-18T07:46:00.216Z,10.13
2023-06-18T07:50:11.869Z,10.02
2023-06-18T07:54:23.597Z,9.43
2023-06-18T07:58:35.204Z,10.60
2023-06-18T08:02:47.446Z,9.98
2023-06-18T08:06:59.156Z,9.18
2023-06-18T08:11:10.814Z,10.75
2023-06-18T08:15:23.735Z,10.23
2023-06-18T08:19:38.141Z,9.98
2023-06-18T08:23:51.122Z,9.80
2023-06-18T08:28:02.786Z,10.85
2023-06-18T08:32:14.672Z,9.65
2023-06-18T08:36:26.694Z,8.40
2023-06-18T08:40:50.920Z,8.68
2023-06-18T08:45:02.515Z,9.45
2023-06-18T08:49:15.720Z,8.38
2023-06-18T08:53:35.725Z,8.27
2023-06-18T08:58:12.590Z,9.00
2023-06-18T09:02:26.078Z,8.25
2023-06-18T09:06:40.538Z,8.45
2023-06-18T09:10:55.797Z,8.60
2023-06-18T09:15:08.284Z,8.57
2023-06-18T09:19:21.398Z,9.40
2023-06-18T09:23:33.403Z,9.38
2023-06-18T09:27:45.884Z,9.68
2023-06-18T09:31:57.485Z,8.95
2023-06-18T09:36:09.863Z,7.72
2023-06-18T09:40:23.465Z,8.40
2023-06-18T09:44:35.296Z,7.78
2023-06-18T09:48:47.878Z,8.15
2023-06-18T09:53:04.561Z,7.93
2023-06-18T09:57:17.227Z,8.85
2023-06-18T10:01:30.882Z,6.63
2023-06-18T10:05:43.039Z,6.78
2023-06-18T10:09:56.767Z,8.50
2023-06-18T10:14:14.144Z,7.18
2023-06-18T10:18:26.653Z,7.03
2023-06-18T10:22:45.200Z,7.35
2023-06-18T10:26:57.359Z,7.28
2023-06-18T10:31:09.348Z,7.53
2023-06-18T10:35:21.752Z,6.75
2023-06-18T10:39:35.243Z,6.72
2023-06-18T10:43:52.435Z,7.15
2023-06-18T10:48:19.522Z,6.85
2023-06-18T10:52:35.076Z,6.50
2023-06-18T10:56:52.828Z,7.70
2023-06-18T11:01:04.841Z,10.15
2023-06-18T11:05:35.312Z,6.20
2023-06-18T11:09:57.337Z,6.22
2023-06-18T11:14:20.532Z,7.43
2023-06-18T11:18:33.240Z,6.55
2023-06-18T11:22:45.558Z,6.63
2023-06-18T11:26:57.767Z,6.57
2023-06-18T11:31:09.612Z,7.07
2023-06-18T11:35:21.703Z,6.97
2023-06-18T11:39:34.648Z,6.90
2023-06-18T11:43:47.749Z,7.25
2023-06-18T11:47:59.473Z,7.30
2023-06-18T11:52:13.153Z,6.35
2023-06-18T11:56:29.477Z,6.65
2023-06-18T12:00:41.274Z,8.02
2023-06-18T12:04:53.297Z,7.97
2023-06-18T12:09:09.866Z,6.80
2023-06-18T12:13:31.995Z,6.78
2023-06-18T12:18:04.928Z,6.75
2023-06-18T12:22:17.445Z,6.07
2023-06-18T12:26:29.457Z,6.57
2023-06-18T12:30:42.507Z,6.90
2023-06-18T12:34:54.202Z,7.07
2023-06-18T12:39:11.710Z,6.80
2023-06-18T12:43:26.168Z,6.80
2023-06-18T12:47:48.851Z,6.30
2023-06-18T12:52:00.546Z,7.25
2023-06-18T12:56:19.395Z,8.35
2023-06-18T13:00:30.955Z,6.55
2023-06-18T13:04:44.932Z,7.25
2023-06-18T13:08:57.264Z,6.82
2023-06-18T13:13:08.901Z,7.00
2023-06-18T13:17:20.527Z,7.03
2023-06-18T13:21:32.101Z,7.07
2023-06-18T13:25:43.877Z,7.75
2023-06-18T13:29:56.442Z,7.10
2023-06-18T13:34:08.527Z,7.68
2023-06-18T13:38:20.093Z,7.07
2023-06-18T13:42:31.690Z,7.60
2023-06-18T13:46:43.343Z,6.97
2023-06-18T13:50:54.928Z,6.75
2023-06-18T13:55:06.733Z,7.53
2023-06-18T13:59:18.342Z,7.78
2023-06-18T14:03:30.122Z,8.05
2023-06-18T14:07:42.380Z,7.88
2023-06-18T14:11:53.944Z,7.53
2023-06-18T14:16:10.110Z,8.55
2023-06-18T14:20:23.597Z,8.68
2023-06-18T14:24:35.853Z,7.53
2023-06-18T14:28:47.705Z,8.02
2023-06-18T14:32:59.264Z,8.48
2023-06-18T14:37:10.881Z,7.90
2023-06-18T14:41:22.434Z,7.78
2023-06-18T14:45:34.000Z,7.72
2023-06-18T14:49:45.628Z,7.68
2023-06-18T14:54:04.473Z,8.02
2023-06-18T14:58:16.717Z,7.43
2023-06-18T15:02:30.127Z,8.23
2023-06-18T15:06:42.960Z,8.40
2023-06-18T15:10:55.985Z,7.60
2023-06-18T15:15:08.527Z,8.77
2023-06-18T15:19:20.091Z,7.93
2023-06-18T15:23:31.662Z,7.15
2023-06-18T15:27:43.261Z,7.53
2023-06-18T15:31:54.810Z,7.85
2023-06-18T15:36:06.372Z,8.43
2023-06-18T15:40:17.925Z,8.77
2023-06-18T15:44:29.480Z,8.45
2023-06-18T15:48:41.115Z,7.78
2023-06-18T15:52:55.030Z,7.05
2023-06-18T15:57:06.832Z,6.40
2023-06-18T16:01:18.415Z,6.25
2023-06-18T16:05:30.017Z,7.97
2023-06-18T16:09:41.717Z,6.45
2023-06-18T16:13:53.330Z,6.80
2023-06-18T16:18:06.733Z,7.10
2023-06-18T16:22:18.425Z,6.80
2023-06-18T16:26:30.567Z,7.63
2023-06-18T16:30:42.118Z,7.05
2023-06-18T16:34:53.672Z,6.65
2023-06-18T16:39:05.386Z,6.82
2023-06-18T16:43:17.582Z,7.13
2023-06-18T16:47:29.188Z,8.20
2023-06-18T16:51:41.403Z,7.93
2023-06-18T16:55:52.944Z,9.95
2023-06-18T17:00:06.155Z,7.88
2023-06-18T17:04:18.358Z,8.15
2023-06-18T17:08:29.912Z,7.78
2023-06-18T17:12:41.496Z,7.70
2023-06-18T17:16:53.103Z,8.30
2023-06-18T17:21:05.873Z,11.30
2023-06-18T17:25:17.430Z,9.23
2023-06-18T17:29:28.994Z,10.63
2023-06-18T17:33:41.353Z,8.30
2023-06-18T17:37:52.974Z,9.40
2023-06-18T17:42:04.785Z,8.90
2023-06-18T17:46:21.305Z,7.68
2023-06-18T17:50:32.941Z,9.80
2023-06-18T17:54:44.526Z,8.95
2023-06-18T17:58:56.060Z,8.25
2023-06-18T18:03:07.692Z,7.55
2023-06-18T18:07:21.671Z,8.68
2023-06-18T18:11:33.367Z,9.55
2023-06-18T18:15:45.003Z,9.35
2023-06-18T18:19:56.985Z,9.32
2023-06-18T18:24:09.387Z,9.88
2023-06-18T18:28:22.054Z,9.27
2023-06-18T18:32:33.624Z,9.10
2023-06-18T18:36:45.208Z,9.43
2023-06-18T18:40:56.752Z,9.57
2023-06-18T18:45:08.756Z,9.73
2023-06-18T18:49:20.291Z,9.20
2023-06-18T18:53:32.012Z,9.90
2023-06-18T18:57:43.592Z,10.07
2023-06-18T19:01:55.148Z,9.65
2023-06-18T19:06:06.692Z,12.05
2023-06-18T19:10:18.234Z,10.45
2023-06-18T19:14:30.389Z,9.82
2023-06-18T19:18:44.018Z,10.25
2023-06-18T19:22:55.639Z,11.13
2023-06-18T19:27:07.329Z,10.68
2023-06-18T19:31:19.115Z,11.43
2023-06-18T19:35:30.678Z,9.90
2023-06-18T19:39:42.339Z,10.70
2023-06-18T19:43:53.957Z,9.73
2023-06-18T19:48:05.673Z,10.05
2023-06-18T19:52:17.395Z,9.52
2023-06-18T19:56:28.960Z,10.55
2023-06-18T20:00:40.542Z,9.95
2023-06-18T20:04:52.125Z,10.57
2023-06-18T20:09:07.758Z,11.02
2023-06-18T20:13:19.325Z,10.80
2023-06-18T20:17:30.914Z,10.15
2023-06-18T20:21:42.535Z,10.02
2023-06-18T20:25:54.833Z,10.85
2023-06-18T20:30:07.207Z,9.82
2023-06-18T20:34:18.760Z,10.20
2023-06-18T20:38:30.351Z,11.20
2023-06-18T20:42:41.948Z,10.63
2023-06-18T20:46:53.585Z,10.70
2023-06-18T20:51:05.355Z,10.40
2023-06-18T20:55:16.966Z,10.85
2023-06-18T20:59:28.522Z,13.52
2023-06-18T21:03:44.376Z,11.65
2023-06-18T21:07:56.038Z,10.50
2023-06-18T21:12:07.990Z,9.90
2023-06-18T21:16:19.661Z,10.60
2023-06-18T21:20:31.272Z,10.05
2023-06-18T21:24:42.930Z,9.57
2023-06-18T21:28:54.531Z,10.20
2023-06-18T22:49:53.420Z,10.65
2023-06-18T22:54:06.037Z,11.40
2023-06-18T22:58:17.881Z,12.45
2023-06-18T23:02:29.504Z,12.07
2023-06-18T23:06:41.095Z,12.13
2023-06-18T23:10:52.742Z,10.40
2023-06-18T23:15:04.760Z,11.65
2023-06-18T23:19:16.349Z,11.52
2023-06-18T23:23:29.867Z,10.85
2023-06-18T23:27:42.325Z,10.82
